createdAt,value
2022-10-17T06:15:23.101Z,146.84
2022-10-17T06:25:22.949Z,158.07
2022-10-17T06:35:22.975Z,163.01
2022-10-17T06:45:22.985Z,169.19
2022-10-17T06:55:23.409Z,164.40
2022-10-17T07:05:23.015Z,157.14
2022-10-17T07:15:22.964Z,160.41
2022-10-17T07:25:23.054Z,162.29
2022-10-17T07:35:23.135Z,171.39
2022-10-17T07:45:22.963Z,168.43
2022-10-17T07:55:23.095Z,177.35
2022-10-17T08:05:23.026Z,176.29
2022-10-17T08:15:24.177Z,173.20
2022-10-17T08:25:23.102Z,177.42
2022-10-17T08:35:23.019Z,177.37
2022-10-17T08:45:23.013Z,178.15
2022-10-17T08:55:23.135Z,179.21
2022-10-17T09:05:26.345Z,179.22
2022-10-17T09:15:23.061Z,176.81
2022-10-17T09:25:23.045Z,177.38
2022-10-17T09:35:23.195Z,178.59
2022-10-17T09:45:23.156Z,178.08
2022-10-17T09:55:23.019Z,178.90
2022-10-17T10:05:23.185Z,176.54
2022-10-17T10:15:23.145Z,172.66
2022-10-17T10:25:23.221Z,172.14
2022-10-17T10:35:23.233Z,175.59
2022-10-17T10:45:46.431Z,173.86
2022-10-17T10:55:23.137Z,178.73
2022-10-17T11:05:23.099Z,176.83
2022-10-17T11:15:23.081Z,176.52
2022-10-17T11:25:23.105Z,178.82
2022-10-17T11:35:23.043Z,178.69
2022-10-17T11:45:23.150Z,179.59
2022-10-17T11:55:23.108Z,179.49
2022-10-17T12:05:23.101Z,179.15
2022-10-17T12:15:23.153Z,179.49
2022-10-17T12:25:23.042Z,177.87
2022-10-17T12:35:23.205Z,179.50
2022-10-17T12:45:22.974Z,178.75
2022-10-17T12:55:23.180Z,180.09
2022-10-17T13:05:23.081Z,178.71
2022-10-17T13:15:23.176Z,178.98
2022-10-17T13:25:23.130Z,179.39
2022-10-17T13:35:31.763Z,199.35
2022-10-17T13:45:23.254Z,187.32
2022-10-17T13:55:23.144Z,198.05
2022-10-17T14:05:23.243Z,179.61
2022-10-17T14:15:23.210Z,180.98
2022-10-17T14:25:23.318Z,182.71
2022-10-17T14:35:41.027Z,201.09
2022-10-17T14:45:23.789Z,236.01
2022-10-17T14:55:23.249Z,223.70
2022-10-17T15:05:23.272Z,195.10
2022-10-17T15:15:23.401Z,180.00
2022-10-17T15:25:23.276Z,180.00
2022-10-17T15:35:23.381Z,180.00
2022-10-17T15:45:23.533Z,180.00
2022-10-17T15:55:23.481Z,180.00
2022-10-17T16:05:23.566Z,180.00
2022-10-17T16:15:23.414Z,183.97
2022-10-17T16:25:23.391Z,180.00
2022-10-17T16:35:23.535Z,193.71
2022-10-17T16:45:23.587Z,227.99
2022-10-17T16:55:23.462Z,196.01
2022-10-17T17:05:23.454Z,193.82
2022-10-17T17:15:23.478Z,273.12
2022-10-17T17:25:23.542Z,332.88
2022-10-17T17:35:23.548Z,258.32
2022-10-17T17:45:23.625Z,180.00
2022-10-17T17:55:23.570Z,180.00
2022-10-17T18:05:23.559Z,180.00
2022-10-17T18:15:23.669Z,180.00
2022-10-17T18:25:23.666Z,211.48
2022-10-17T18:35:23.647Z,196.57
2022-10-17T18:45:23.863Z,173.63
2022-10-17T18:55:23.889Z,180.00
2022-10-17T19:05:24.231Z,180.00
2022-10-17T19:15:25.972Z,180.00
